Airfield :
LOGIN :

Register | Disclaimer

   EN    FR    IT 

 










Legend :    VFR   Marginal VFR   IFR   Intensive IFR   Very Intensive IFR
Visi :
Ceiling :
>= 8 km
>= 3000ft
5 to 8 km
1000 to 3000 ft
1500m to 5 km
500 to 1000 ft
800 to 1500m
200 to 500 ft
< 800m
< 200 ft
Symbols :   Thunderstorms  Fog  Heavy snow  Heavy precipitations  Wind > 20 kt
SIGMETs :     Misc.  Thunderstorms  Icing  Turbulence  Mountain Waves  Volcanic Ashes







- Airport Elevation : 38 ft
- IATA code : TRE
- Download approach charts


EGPU - Tiree

CURRENT METAR :
  • 161350Z 28016KT 9999 FEW018 14/10 Q1023

EXPIRED METARs :
  • 161320Z 29016KT 9999 FEW025 14/09 Q1023
  • 161250Z 29015KT 9999 SCT034 15/10 Q1023
  • 161220Z 28014KT 9999 FEW032 14/09 Q1023
  • 161150Z AUTO 29017KT 250V320 9999 FEW024/// BKN042/// 12/08 Q1023
  • 161120Z AUTO 29015KT 9999 BKN041/// 13/09 Q1023

TAF TAF EGPU
Valid from the 16 at 12:00 until the 16 at 17:00 UTC


161058Z 1612/1617 28012KT 9999 FEW020 SCT040
PROB30
TEMPO 1612/1617 29015G25KT 7000 SHRA
No reported NOTAMs for that airfield.



MET'MAP, your aeronautical weather chart ! - Copyright ORBIFLY December 2007 - Disclaimer

ORBIFLY MET'MAP TEAM :

Programming & Development : Alexandra Zaïnal
Concept & Development : Baudouin d'Aumeries
Co-Development & Prog : Marc-Olivier Méhu
Technical & hardware support : Manuel Goepfert

Contact : metmap@orbifly.com




SOURCES & CREDITS :

   NOAA